createdAt,value
2018-12-08T00:01:06.794Z,2.71
2018-12-08T00:03:32.966Z,2.77
2018-12-08T00:05:59.306Z,2.70
2018-12-08T00:08:25.482Z,2.64
2018-12-08T00:10:51.641Z,2.58
2018-12-08T00:13:17.860Z,2.57
2018-12-08T00:15:44.052Z,2.71
2018-12-08T00:18:10.193Z,2.64
2018-12-08T00:20:36.395Z,3.51
2018-12-08T00:23:02.542Z,3.94
2018-12-08T00:25:28.857Z,4.14
2018-12-08T00:27:55.073Z,4.68
2018-12-08T00:33:20.252Z,5.09
2018-12-08T00:35:46.402Z,4.86
2018-12-08T00:38:12.540Z,4.93
2018-12-08T00:40:38.740Z,5.16
2018-12-08T00:43:05.125Z,5.18
2018-12-08T00:45:32.213Z,5.06
2018-12-08T00:47:59.327Z,5.26
2018-12-08T00:53:10.969Z,5.67
2018-12-08T00:55:37.225Z,5.66
2018-12-08T00:58:03.393Z,5.00
2018-12-08T01:03:09.710Z,3.85
2018-12-08T01:05:35.977Z,3.52
2018-12-08T01:08:02.147Z,3.44
2018-12-08T01:10:28.343Z,3.34
2018-12-08T01:12:54.511Z,3.11
2018-12-08T01:15:20.668Z,3.02
2018-12-08T01:17:46.855Z,2.89
2018-12-08T01:20:13.029Z,2.64
2018-12-08T01:22:39.190Z,2.78
2018-12-08T01:25:05.653Z,2.98
2018-12-08T01:27:31.825Z,2.25
2018-12-08T01:29:57.990Z,2.66
2018-12-08T01:32:24.201Z,2.65
2018-12-08T01:34:50.506Z,2.42
2018-12-08T01:37:16.781Z,2.41
2018-12-08T01:39:42.962Z,2.33
2018-12-08T01:42:09.108Z,2.41
2018-12-08T01:44:35.293Z,2.66
2018-12-08T01:47:01.480Z,2.51
2018-12-08T01:49:27.634Z,2.69
2018-12-08T01:51:54.005Z,2.57
2018-12-08T01:54:20.247Z,2.73
2018-12-08T01:56:46.567Z,2.46
2018-12-08T01:59:12.770Z,2.62
2018-12-08T02:01:39.001Z,2.29
2018-12-08T02:04:05.176Z,2.21
2018-12-08T02:06:31.352Z,2.26
2018-12-08T02:08:57.572Z,2.35
2018-12-08T02:11:25.126Z,2.31
2018-12-08T02:13:51.682Z,2.41
2018-12-08T02:16:17.917Z,2.31
2018-12-08T02:18:44.101Z,2.27
2018-12-08T02:21:10.267Z,2.25
2018-12-08T02:23:36.505Z,2.07
2018-12-08T02:26:02.683Z,1.96
2018-12-08T02:28:28.877Z,2.09
2018-12-08T02:30:55.111Z,2.21
2018-12-08T02:33:21.331Z,1.83
2018-12-08T02:35:47.513Z,2.53
2018-12-08T02:38:13.736Z,3.40
2018-12-08T02:43:16.210Z,4.94
2018-12-08T02:45:42.365Z,5.30
2018-12-08T02:48:08.520Z,5.36
2018-12-08T02:50:34.722Z,5.49
2018-12-08T02:53:00.899Z,5.88
2018-12-08T02:55:27.081Z,5.69
2018-12-08T02:57:53.291Z,5.76
2018-12-08T03:00:19.489Z,5.47
2018-12-08T03:02:45.672Z,5.44
2018-12-08T03:05:11.904Z,5.39
2018-12-08T03:07:39.014Z,5.61
2018-12-08T03:10:05.338Z,5.73
2018-12-08T03:13:13.089Z,5.68
2018-12-08T03:15:39.236Z,5.51
2018-12-08T03:18:05.397Z,5.69
2018-12-08T03:20:31.582Z,5.30
2018-12-08T03:22:57.718Z,5.10
2018-12-08T03:25:23.842Z,5.00
2018-12-08T03:27:50.031Z,4.74
2018-12-08T03:30:16.194Z,4.49
2018-12-08T03:32:42.338Z,3.73
2018-12-08T03:35:08.513Z,3.57
2018-12-08T03:37:34.669Z,3.24
2018-12-08T03:40:00.828Z,3.28
2018-12-08T03:42:27.129Z,2.96
2018-12-08T03:44:53.273Z,3.11
2018-12-08T03:47:19.425Z,2.89
2018-12-08T03:49:45.625Z,2.95
2018-12-08T03:52:11.765Z,3.33
2018-12-08T03:54:37.922Z,3.21
2018-12-08T03:57:04.145Z,3.01
2018-12-08T03:59:30.315Z,3.44
2018-12-08T04:01:56.463Z,3.17
2018-12-08T04:04:22.686Z,3.36
2018-12-08T04:06:48.878Z,3.20
2018-12-08T04:09:15.067Z,3.24
2018-12-08T04:11:41.273Z,3.18
2018-12-08T04:14:07.481Z,3.28
2018-12-08T04:16:33.700Z,3.32
2018-12-08T04:18:59.937Z,3.53
2018-12-08T04:21:26.096Z,3.71
2018-12-08T04:23:52.254Z,3.72
2018-12-08T04:26:18.454Z,3.77
2018-12-08T04:28:44.625Z,3.73
2018-12-08T04:31:10.775Z,3.65
2018-12-08T04:33:36.961Z,3.70
2018-12-08T04:36:03.139Z,3.75
2018-12-08T04:38:29.305Z,3.76
2018-12-08T04:40:55.485Z,3.79
2018-12-08T04:43:21.645Z,3.80
2018-12-08T04:45:47.825Z,3.82
2018-12-08T04:48:14.053Z,3.77
2018-12-08T04:50:40.261Z,3.66
2018-12-08T04:53:06.498Z,3.43
2018-12-08T04:55:32.688Z,3.28
2018-12-08T04:57:58.844Z,3.35
2018-12-08T05:00:25.013Z,3.37
2018-12-08T05:02:51.235Z,3.38
2018-12-08T05:05:17.387Z,3.35
2018-12-08T05:07:43.525Z,3.32
2018-12-08T05:10:09.724Z,3.20
2018-12-08T05:12:35.878Z,3.10
2018-12-08T05:15:02.220Z,3.17
2018-12-08T05:17:28.405Z,3.11
2018-12-08T05:19:54.589Z,3.25
2018-12-08T05:22:20.765Z,3.26
2018-12-08T05:24:46.970Z,3.28
2018-12-08T05:27:13.157Z,3.25
2018-12-08T05:29:39.337Z,3.27
2018-12-08T05:32:05.589Z,3.29
2018-12-08T05:34:31.755Z,3.39
2018-12-08T05:36:57.917Z,3.43
2018-12-08T05:39:24.097Z,3.49
2018-12-08T05:41:50.265Z,3.64
2018-12-08T05:44:20.882Z,3.77
2018-12-08T05:46:50.983Z,3.80
2018-12-08T05:49:21.167Z,3.78
2018-12-08T05:51:50.609Z,3.91
2018-12-08T05:54:21.115Z,4.01
2018-12-08T05:56:50.115Z,4.37
2018-12-08T05:59:16.733Z,4.71
2018-12-08T06:01:46.813Z,5.02
2018-12-08T06:04:16.199Z,5.04
2018-12-08T06:06:42.421Z,5.66
2018-12-08T06:09:09.238Z,5.98
2018-12-08T06:11:35.373Z,5.81
2018-12-08T06:14:01.679Z,5.11
2018-12-08T06:16:27.860Z,5.32
2018-12-08T06:18:54.011Z,5.57
2018-12-08T06:21:26.052Z,6.37
2018-12-08T06:23:52.287Z,7.16
2018-12-08T06:26:18.960Z,6.73
2018-12-08T06:28:45.101Z,7.49
2018-12-08T06:31:11.325Z,7.51
2018-12-08T06:33:37.456Z,7.42
2018-12-08T06:36:03.640Z,7.54
2018-12-08T06:38:29.826Z,7.57
2018-12-08T06:40:55.977Z,7.84
2018-12-08T06:43:22.109Z,8.70
2018-12-08T06:45:48.429Z,8.82
2018-12-08T06:48:14.584Z,9.11
2018-12-08T06:50:40.741Z,9.16
2018-12-08T06:53:06.926Z,8.96
2018-12-08T06:55:33.063Z,9.16
2018-12-08T06:57:59.242Z,9.16
2018-12-08T07:00:25.441Z,9.11
2018-12-08T07:02:51.885Z,8.63
2018-12-08T07:05:18.090Z,8.79
2018-12-08T07:07:44.245Z,8.62
2018-12-08T07:10:10.393Z,9.78
2018-12-08T07:12:37.155Z,10.55
2018-12-08T07:15:03.760Z,11.13
2018-12-08T07:17:29.913Z,11.02
2018-12-08T07:19:56.049Z,11.45
2018-12-08T07:22:22.261Z,11.64
2018-12-08T07:24:48.429Z,11.78
2018-12-08T07:27:14.612Z,11.82
2018-12-08T07:29:41.385Z,11.69
2018-12-08T07:32:07.547Z,10.82
2018-12-08T07:34:33.735Z,10.63
2018-12-08T07:36:59.917Z,10.80
2018-12-08T07:39:26.081Z,11.25
2018-12-08T07:41:52.226Z,11.68
2018-12-08T07:44:18.404Z,11.96
2018-12-08T07:46:44.549Z,12.08
2018-12-08T07:49:10.757Z,11.82
2018-12-08T07:51:36.962Z,12.08
2018-12-08T07:54:03.266Z,12.50
2018-12-08T07:56:29.418Z,12.59
2018-12-08T07:58:55.610Z,12.59
2018-12-08T08:01:21.793Z,12.66
2018-12-08T08:03:47.965Z,12.44
2018-12-08T08:06:14.154Z,12.67
2018-12-08T08:08:40.298Z,12.85
2018-12-08T08:11:06.457Z,13.54
2018-12-08T08:13:32.644Z,13.90
2018-12-08T08:15:58.841Z,13.49
2018-12-08T08:18:24.968Z,13.45
2018-12-08T08:20:51.121Z,12.46
2018-12-08T08:23:17.257Z,12.67
2018-12-08T08:25:43.396Z,12.88
2018-12-08T08:28:09.604Z,13.32
2018-12-08T08:30:35.777Z,13.53
2018-12-08T08:33:01.969Z,13.47
2018-12-08T08:35:28.161Z,13.40
2018-12-08T08:37:54.306Z,14.27
2018-12-08T08:40:20.456Z,14.62
2018-12-08T08:42:46.646Z,14.01
2018-12-08T08:45:12.793Z,14.42
2018-12-08T08:47:38.933Z,14.16
2018-12-08T08:50:07.106Z,13.64
2018-12-08T08:52:33.278Z,13.23
2018-12-08T08:54:59.431Z,12.59
2018-12-08T08:57:25.669Z,11.70
2018-12-08T08:59:51.813Z,11.31
2018-12-08T09:02:17.961Z,11.02
2018-12-08T09:04:44.220Z,11.31
2018-12-08T09:07:10.383Z,11.62
2018-12-08T09:09:36.702Z,11.61
2018-12-08T09:12:03.066Z,11.45
2018-12-08T09:14:29.229Z,11.53
2018-12-08T09:16:55.397Z,11.79
2018-12-08T09:19:21.570Z,12.16
2018-12-08T09:21:47.713Z,12.16
2018-12-08T09:24:13.853Z,12.64
2018-12-08T09:26:40.166Z,13.15
2018-12-08T09:29:06.387Z,13.45
2018-12-08T09:31:32.539Z,14.10
2018-12-08T09:33:58.725Z,14.75
2018-12-08T09:36:24.892Z,14.76
2018-12-08T09:38:51.058Z,14.76
2018-12-08T09:41:17.236Z,14.30
2018-12-08T09:43:43.409Z,13.80
2018-12-08T09:46:09.548Z,13.45
2018-12-08T09:48:35.737Z,13.07
2018-12-08T09:51:01.891Z,13.06
2018-12-08T09:53:28.040Z,13.80
2018-12-08T09:55:54.257Z,13.13
2018-12-08T09:58:20.429Z,13.46
2018-12-08T10:00:46.577Z,13.98
2018-12-08T10:03:12.845Z,14.89
2018-12-08T10:05:39.065Z,14.91
2018-12-08T10:08:05.215Z,15.28
2018-12-08T10:10:31.408Z,14.46
2018-12-08T10:12:57.568Z,14.10
2018-12-08T10:15:23.741Z,14.44
2018-12-08T10:17:49.937Z,15.20
2018-12-08T10:20:16.086Z,15.62
2018-12-08T10:22:42.320Z,15.71
2018-12-08T10:25:08.586Z,16.00
2018-12-08T10:27:34.729Z,15.86
2018-12-08T10:30:00.857Z,15.79
2018-12-08T10:32:27.053Z,15.15
2018-12-08T10:34:53.222Z,14.74
2018-12-08T10:37:19.365Z,14.77
2018-12-08T10:39:45.585Z,14.70
2018-12-08T10:42:11.721Z,14.94
2018-12-08T10:44:37.902Z,15.25
2018-12-08T10:47:04.247Z,15.75
2018-12-08T10:49:30.409Z,15.69
2018-12-08T10:51:56.560Z,15.56
2018-12-08T10:54:24.743Z,15.89
2018-12-08T10:56:50.927Z,15.96
2018-12-08T10:59:21.311Z,15.98
2018-12-08T11:01:53.618Z,15.85
2018-12-08T11:04:19.780Z,15.77
2018-12-08T11:06:45.961Z,15.84
2018-12-08T11:09:12.185Z,15.90
2018-12-08T11:11:38.346Z,16.17
2018-12-08T11:14:04.543Z,16.02
2018-12-08T11:16:30.724Z,15.86
2018-12-08T11:18:56.879Z,15.94
2018-12-08T11:21:23.107Z,16.08
2018-12-08T11:23:49.318Z,16.23
2018-12-08T11:26:15.471Z,16.29
2018-12-08T11:28:41.658Z,16.41
2018-12-08T11:31:07.874Z,16.57
2018-12-08T11:33:34.030Z,16.90
2018-12-08T11:36:00.205Z,17.28
2018-12-08T11:38:26.401Z,18.10
2018-12-08T11:40:52.573Z,19.13
2018-12-08T11:43:18.722Z,19.82
2018-12-08T11:45:44.937Z,19.51
2018-12-08T11:48:11.121Z,18.76
2018-12-08T11:50:37.349Z,18.08
2018-12-08T11:53:03.573Z,17.41
2018-12-08T11:55:30.344Z,17.03
2018-12-08T11:57:57.091Z,16.72
2018-12-08T12:00:23.310Z,16.34
2018-12-08T12:02:49.466Z,16.22
2018-12-08T12:05:15.627Z,15.74
2018-12-08T12:07:41.857Z,15.56
2018-12-08T12:10:08.116Z,15.46
2018-12-08T12:12:34.277Z,15.20
2018-12-08T12:15:00.440Z,14.41
2018-12-08T12:17:26.589Z,14.29
2018-12-08T12:19:52.738Z,13.95
2018-12-08T12:22:18.909Z,14.12
2018-12-08T12:24:45.132Z,14.21
2018-12-08T12:27:11.297Z,14.18
2018-12-08T12:29:37.545Z,14.22
2018-12-08T12:32:04.604Z,14.39
2018-12-08T12:34:30.865Z,14.52
2018-12-08T12:36:57.065Z,14.48
2018-12-08T12:39:23.215Z,14.47
2018-12-08T12:41:49.361Z,14.48
2018-12-08T12:44:15.531Z,14.64
2018-12-08T12:46:41.684Z,14.66
2018-12-08T12:49:07.850Z,14.66
2018-12-08T12:51:34.033Z,14.38
2018-12-08T12:54:00.186Z,14.30
2018-12-08T12:56:26.340Z,14.20
2018-12-08T12:58:52.545Z,14.18
2018-12-08T13:01:18.717Z,14.28
2018-12-08T13:03:44.870Z,14.21
2018-12-08T13:06:11.198Z,13.75
2018-12-08T13:08:37.346Z,13.69
2018-12-08T13:11:03.518Z,13.60
2018-12-08T13:13:29.689Z,13.78
2018-12-08T13:15:55.844Z,13.82
2018-12-08T13:18:22.013Z,13.76
2018-12-08T13:20:48.198Z,13.35
2018-12-08T13:23:14.341Z,12.84
2018-12-08T13:25:40.489Z,12.91
2018-12-08T13:28:06.677Z,12.99
2018-12-08T13:30:32.862Z,12.85
2018-12-08T13:32:59.020Z,12.87
2018-12-08T13:35:37.401Z,12.97
2018-12-08T13:38:03.533Z,12.81
2018-12-08T13:43:06.499Z,12.19
2018-12-08T13:45:32.670Z,12.21
2018-12-08T13:47:58.818Z,12.02
2018-12-08T13:50:25.006Z,11.94
2018-12-08T13:52:51.157Z,11.70
2018-12-08T13:55:17.445Z,11.30
2018-12-08T13:57:43.634Z,11.43
2018-12-08T14:00:09.820Z,11.38
2018-12-08T14:02:35.984Z,11.51
2018-12-08T14:05:02.289Z,11.68
2018-12-08T14:07:28.440Z,11.61
2018-12-08T14:09:54.623Z,10.88
2018-12-08T14:12:20.805Z,10.71
2018-12-08T14:14:46.965Z,10.47
2018-12-08T14:17:13.130Z,10.43
2018-12-08T14:19:39.333Z,10.62
2018-12-08T14:22:05.503Z,10.63
2018-12-08T14:24:31.673Z,10.67
2018-12-08T14:26:57.869Z,10.58
2018-12-08T14:29:24.014Z,10.59
2018-12-08T14:31:50.564Z,10.46
2018-12-08T14:34:17.083Z,10.46
2018-12-08T14:36:43.238Z,10.38
2018-12-08T14:39:09.377Z,10.20
2018-12-08T14:41:35.551Z,10.01
2018-12-08T14:44:01.741Z,9.96
2018-12-08T14:46:27.901Z,10.03
2018-12-08T14:48:54.117Z,10.08
2018-12-08T14:51:20.262Z,10.24
2018-12-08T14:53:46.435Z,10.02
2018-12-08T14:56:13.117Z,10.21
2018-12-08T14:58:39.270Z,10.23
2018-12-08T15:01:05.453Z,10.18
2018-12-08T15:03:31.681Z,10.15
2018-12-08T15:05:57.817Z,10.17
2018-12-08T15:08:23.973Z,9.87
2018-12-08T15:10:51.153Z,9.25
2018-12-08T15:13:17.397Z,9.26
2018-12-08T15:15:43.569Z,8.83
2018-12-08T15:18:09.773Z,8.69
2018-12-08T15:20:35.934Z,9.10
2018-12-08T15:23:02.081Z,9.47
2018-12-08T15:25:28.281Z,9.62
2018-12-08T15:27:54.436Z,9.47
2018-12-08T15:30:20.595Z,9.40
2018-12-08T15:32:46.772Z,9.29
2018-12-08T15:35:13.053Z,9.34
2018-12-08T15:37:39.258Z,9.24
2018-12-08T15:40:05.913Z,9.28
2018-12-08T15:42:32.072Z,9.25
2018-12-08T15:44:58.349Z,9.14
2018-12-08T15:47:24.513Z,9.20
2018-12-08T15:49:50.661Z,9.24
2018-12-08T15:52:16.938Z,9.37
2018-12-08T15:54:43.114Z,9.30
2018-12-08T15:57:09.281Z,9.26
2018-12-08T15:59:35.441Z,9.02
2018-12-08T16:02:01.771Z,9.17
2018-12-08T16:04:27.905Z,9.23
2018-12-08T16:06:54.076Z,8.94
2018-12-08T16:09:21.774Z,8.96
2018-12-08T16:11:47.929Z,8.85
2018-12-08T16:14:14.081Z,8.98
2018-12-08T16:16:40.302Z,8.75
2018-12-08T16:19:06.471Z,8.70
2018-12-08T16:21:32.674Z,8.65
2018-12-08T16:23:58.866Z,8.38
2018-12-08T16:26:25.049Z,8.45
2018-12-08T16:28:51.194Z,8.62
2018-12-08T16:31:17.419Z,8.54
2018-12-08T16:33:43.568Z,8.44
2018-12-08T16:36:09.720Z,8.44
2018-12-08T16:38:36.026Z,8.53
2018-12-08T16:41:02.182Z,8.57
2018-12-08T16:43:28.373Z,8.37
2018-12-08T16:45:54.565Z,7.98
2018-12-08T16:48:20.875Z,8.23
2018-12-08T16:50:47.040Z,8.27
2018-12-08T16:53:13.225Z,8.19
2018-12-08T16:55:39.385Z,7.98
2018-12-08T16:58:05.588Z,8.01
2018-12-08T17:00:31.853Z,8.00
2018-12-08T17:02:58.013Z,7.85
2018-12-08T17:05:24.194Z,7.51
2018-12-08T17:07:50.371Z,7.63
2018-12-08T17:10:16.574Z,7.83
2018-12-08T17:12:42.765Z,7.94
2018-12-08T17:15:09.205Z,8.06
2018-12-08T17:17:35.364Z,8.13
2018-12-08T17:20:01.683Z,7.92
2018-12-08T17:22:27.863Z,7.63
2018-12-08T17:24:54.032Z,7.39
2018-12-08T17:27:20.316Z,7.37
2018-12-08T17:29:46.513Z,7.92
2018-12-08T17:32:12.673Z,8.08
2018-12-08T17:34:38.889Z,8.13
2018-12-08T17:37:05.201Z,8.15
2018-12-08T17:39:31.360Z,7.98
2018-12-08T17:41:57.512Z,7.74
2018-12-08T17:44:23.660Z,7.82
2018-12-08T17:46:49.857Z,8.04
2018-12-08T17:49:15.997Z,8.15
2018-12-08T17:54:14.058Z,8.21
2018-12-08T17:56:40.230Z,8.26
2018-12-08T17:59:06.435Z,8.31
2018-12-08T18:01:32.618Z,8.41
2018-12-08T18:03:58.790Z,8.54
2018-12-08T18:06:25.130Z,8.56
2018-12-08T18:08:51.314Z,8.53
2018-12-08T18:11:17.477Z,8.61
2018-12-08T18:13:43.650Z,8.62
2018-12-08T18:16:10.526Z,8.62
2018-12-08T18:18:36.710Z,8.31
2018-12-08T18:21:03.181Z,8.31
2018-12-08T18:23:29.497Z,8.44
2018-12-08T18:25:55.654Z,8.51
2018-12-08T18:28:21.836Z,8.48
2018-12-08T18:30:47.986Z,8.48
2018-12-08T18:33:14.149Z,8.49
2018-12-08T18:35:40.333Z,8.32
2018-12-08T18:40:57.798Z,8.04
2018-12-08T18:43:27.001Z,8.15
2018-12-08T18:49:08.957Z,8.10
2018-12-08T18:51:36.063Z,8.04
2018-12-08T18:54:02.222Z,7.99
2018-12-08T18:56:28.438Z,7.73
2018-12-08T18:58:55.256Z,7.73
2018-12-08T19:01:21.640Z,7.63
2018-12-08T19:03:48.445Z,7.59
2018-12-08T19:06:14.628Z,7.07
2018-12-08T19:08:40.785Z,7.01
2018-12-08T19:11:06.970Z,7.14
2018-12-08T19:13:33.155Z,7.06
2018-12-08T19:15:59.865Z,7.21
2018-12-08T19:18:26.043Z,7.25
2018-12-08T19:20:52.197Z,7.27
2018-12-08T19:23:18.354Z,7.18
2018-12-08T19:25:44.531Z,7.14
2018-12-08T19:28:12.138Z,7.13
2018-12-08T19:33:14.929Z,7.11
2018-12-08T19:35:41.209Z,7.21
2018-12-08T19:38:16.050Z,6.98
2018-12-08T19:40:50.530Z,6.45
2018-12-08T19:43:22.458Z,6.94
2018-12-08T19:45:48.623Z,6.85
2018-12-08T19:48:14.789Z,6.96
2018-12-08T19:50:40.994Z,7.10
2018-12-08T19:53:07.171Z,7.40
2018-12-08T19:55:33.410Z,7.58
2018-12-08T19:57:59.594Z,7.75
2018-12-08T20:00:25.750Z,7.80
2018-12-08T20:02:51.943Z,7.89
2018-12-08T20:05:18.204Z,7.92
2018-12-08T20:07:44.373Z,7.89
2018-12-08T20:10:10.537Z,8.02
2018-12-08T20:12:36.719Z,7.87
2018-12-08T20:15:04.532Z,7.65
2018-12-08T20:17:30.676Z,7.63
2018-12-08T20:19:56.853Z,7.74
2018-12-08T20:22:22.998Z,7.82
2018-12-08T20:24:49.157Z,7.83
2018-12-08T20:27:15.343Z,7.86
2018-12-08T20:29:41.481Z,7.68
2018-12-08T20:32:07.637Z,7.60
2018-12-08T20:34:33.816Z,7.73
2018-12-08T20:36:59.969Z,7.82
2018-12-08T20:39:26.109Z,7.86
2018-12-08T20:41:52.337Z,7.75
2018-12-08T20:44:18.509Z,7.61
2018-12-08T20:46:44.655Z,7.57
2018-12-08T20:49:10.849Z,7.42
2018-12-08T20:51:37.270Z,7.30
2018-12-08T20:54:03.408Z,7.03
2018-12-08T20:56:29.597Z,6.74
2018-12-08T20:58:55.744Z,6.81
2018-12-08T21:01:21.928Z,6.55
2018-12-08T21:03:48.114Z,6.40
2018-12-08T21:06:14.277Z,6.19
2018-12-08T21:08:40.430Z,6.33
2018-12-08T21:11:06.613Z,6.36
2018-12-08T21:13:32.753Z,6.27
2018-12-08T21:15:58.906Z,5.78
2018-12-08T21:18:25.071Z,5.91
2018-12-08T21:20:51.233Z,5.98
2018-12-08T21:23:17.392Z,5.98
2018-12-08T21:25:43.584Z,6.17
2018-12-08T21:28:09.733Z,5.95
2018-12-08T21:30:35.894Z,5.49
2018-12-08T21:33:02.094Z,5.72
2018-12-08T21:35:28.238Z,5.76
2018-12-08T21:37:54.386Z,5.82
2018-12-08T21:40:24.385Z,5.47
2018-12-08T21:42:50.545Z,5.54
2018-12-08T21:45:16.694Z,5.75
2018-12-08T21:47:42.904Z,5.58
2018-12-08T21:50:09.082Z,5.69
2018-12-08T21:52:35.231Z,5.70
2018-12-08T21:55:01.409Z,5.65
2018-12-08T21:57:27.565Z,5.69
2018-12-08T21:59:53.716Z,5.83
2018-12-08T22:02:20.012Z,5.85
2018-12-08T22:04:46.158Z,5.93
2018-12-08T22:07:12.325Z,5.89
2018-12-08T22:09:38.535Z,5.86
2018-12-08T22:12:04.733Z,5.87
2018-12-08T22:14:30.890Z,5.91
2018-12-08T22:16:57.825Z,6.07
2018-12-08T22:19:23.987Z,5.98
2018-12-08T22:21:50.138Z,5.74
2018-12-08T22:24:17.543Z,5.82
2018-12-08T22:26:43.720Z,5.90
2018-12-08T22:29:09.864Z,5.99
2018-12-08T22:31:36.093Z,6.07
2018-12-08T22:34:02.390Z,6.27
2018-12-08T22:36:28.539Z,6.49
2018-12-08T22:38:54.725Z,6.47
2018-12-08T22:41:20.874Z,6.54
2018-12-08T22:43:47.057Z,6.19
2018-12-08T22:46:13.241Z,6.03
2018-12-08T22:48:39.390Z,5.97
2018-12-08T22:51:05.557Z,6.13
2018-12-08T22:53:31.725Z,6.31
2018-12-08T22:55:57.872Z,6.54
2018-12-08T22:58:24.036Z,6.48
2018-12-08T23:00:50.350Z,6.43
2018-12-08T23:03:16.494Z,6.33
2018-12-08T23:05:42.656Z,6.09
2018-12-08T23:08:08.873Z,6.09
2018-12-08T23:10:35.061Z,6.18
2018-12-08T23:13:01.261Z,6.21
2018-12-08T23:15:27.452Z,5.79
2018-12-08T23:17:53.612Z,6.18
2018-12-08T23:20:19.757Z,6.09
2018-12-08T23:22:45.974Z,5.99
2018-12-08T23:25:12.288Z,6.17
2018-12-08T23:27:38.437Z,6.30
2018-12-08T23:30:07.762Z,6.55
2018-12-08T23:32:33.917Z,6.69
2018-12-08T23:35:00.137Z,6.83
2018-12-08T23:37:26.350Z,6.92
2018-12-08T23:39:52.489Z,6.82
2018-12-08T23:42:18.652Z,6.77
2018-12-08T23:44:44.864Z,6.50
2018-12-08T23:47:11.045Z,6.76
2018-12-08T23:49:37.522Z,6.91
2018-12-08T23:52:03.713Z,6.97
2018-12-08T23:54:29.897Z,6.73
2018-12-08T23:56:56.036Z,6.97
2018-12-08T23:59:22.258Z,6.28
